createdAt,value
2017-10-07T00:01:25.929Z,73.40
2017-10-07T00:03:53.408Z,72.60
2017-10-07T00:06:20.869Z,73.10
2017-10-07T00:08:49.109Z,73.40
2017-10-07T00:11:16.583Z,73.40
2017-10-07T00:13:44.278Z,73.80
2017-10-07T00:16:11.719Z,75.30
2017-10-07T00:18:39.954Z,75.30
2017-10-07T00:21:07.434Z,75.30
2017-10-07T00:23:35.698Z,76.00
2017-10-07T00:26:04.051Z,76.20
2017-10-07T00:28:31.521Z,76.10
2017-10-07T00:30:58.988Z,75.50
2017-10-07T00:33:26.468Z,75.80
2017-10-07T00:35:53.941Z,75.80
2017-10-07T00:38:21.402Z,76.00
2017-10-07T00:40:49.634Z,75.90
2017-10-07T00:43:17.133Z,75.90
2017-10-07T00:45:44.604Z,76.10
2017-10-07T00:48:12.825Z,75.90
2017-10-07T00:50:40.290Z,75.80
2017-10-07T00:53:07.765Z,75.40
2017-10-07T00:55:35.255Z,76.00
2017-10-07T00:58:02.718Z,75.50
2017-10-07T01:00:30.176Z,75.70
2017-10-07T01:02:58.466Z,75.20
2017-10-07T01:05:25.910Z,75.30
2017-10-07T01:07:53.399Z,75.60
2017-10-07T01:10:20.852Z,75.30
2017-10-07T01:12:48.316Z,74.20
2017-10-07T01:15:16.640Z,75.00
2017-10-07T01:17:44.126Z,75.00
2017-10-07T01:20:11.621Z,75.20
2017-10-07T01:22:39.845Z,74.40
2017-10-07T01:25:07.410Z,75.30
2017-10-07T01:27:35.680Z,75.50
2017-10-07T01:30:04.052Z,75.50
2017-10-07T01:32:32.283Z,75.40
2017-10-07T01:34:59.732Z,75.40
2017-10-07T01:37:27.976Z,76.00
2017-10-07T01:39:55.423Z,76.10
2017-10-07T01:42:22.905Z,76.00
2017-10-07T01:44:50.380Z,75.70
2017-10-07T01:47:17.852Z,76.10
2017-10-07T01:49:46.105Z,76.50
2017-10-07T01:52:13.562Z,76.40
2017-10-07T01:54:41.017Z,76.90
2017-10-07T01:57:09.332Z,76.80
2017-10-07T01:59:37.551Z,76.40
2017-10-07T02:02:05.026Z,76.50
2017-10-07T02:04:32.489Z,76.40
2017-10-07T02:07:00.728Z,77.50
2017-10-07T02:09:28.192Z,76.90
2017-10-07T02:11:55.825Z,76.50
2017-10-07T02:14:23.342Z,76.80
2017-10-07T02:16:51.555Z,76.50
2017-10-07T02:19:19.043Z,76.40
2017-10-07T02:21:47.281Z,76.20
2017-10-07T02:24:15.530Z,75.50
2017-10-07T02:26:43.756Z,75.00
2017-10-07T02:29:11.225Z,76.00
2017-10-07T02:31:39.438Z,74.70
2017-10-07T02:34:06.908Z,74.70
2017-10-07T02:36:35.189Z,76.20
2017-10-07T02:39:03.424Z,76.00
2017-10-07T02:41:30.933Z,76.00
2017-10-07T02:43:58.394Z,76.30
2017-10-07T02:46:25.855Z,76.60
2017-10-07T02:48:53.336Z,76.40
2017-10-07T02:51:20.792Z,76.50
2017-10-07T02:53:48.425Z,76.50
2017-10-07T02:56:15.867Z,76.20
2017-10-07T02:58:44.091Z,75.80
2017-10-07T03:01:11.548Z,75.80
2017-10-07T03:03:39.004Z,76.00
2017-10-07T03:06:07.276Z,76.30
2017-10-07T03:08:34.827Z,76.40
2017-10-07T03:11:03.047Z,77.20
2017-10-07T03:13:31.308Z,76.70
2017-10-07T03:15:58.781Z,76.70
2017-10-07T03:18:26.274Z,76.70
2017-10-07T03:20:54.634Z,76.90
2017-10-07T03:23:22.097Z,76.70
2017-10-07T03:25:49.578Z,77.10
2017-10-07T03:28:17.047Z,76.70
2017-10-07T03:30:45.273Z,76.80
2017-10-07T03:33:12.724Z,76.80
2017-10-07T03:35:41.015Z,75.90
2017-10-07T03:38:08.497Z,75.90
2017-10-07T03:40:36.189Z,75.80
2017-10-07T03:43:03.758Z,75.40
2017-10-07T03:45:32.128Z,75.80
2017-10-07T03:48:00.373Z,74.30
2017-10-07T03:50:28.593Z,74.00
2017-10-07T03:52:56.975Z,74.10
2017-10-07T03:55:25.259Z,73.50
2017-10-07T03:57:52.726Z,73.50
2017-10-07T04:00:20.207Z,73.60
2017-10-07T04:02:47.676Z,73.20
2017-10-07T04:05:15.422Z,72.90
2017-10-07T04:07:43.639Z,73.10
2017-10-07T04:10:11.944Z,73.00
2017-10-07T04:12:39.413Z,73.00
2017-10-07T04:15:07.641Z,73.00
2017-10-07T04:17:36.008Z,73.20
2017-10-07T04:20:04.231Z,72.80
2017-10-07T04:22:31.708Z,72.80
2017-10-07T04:24:59.961Z,73.10
2017-10-07T04:27:27.431Z,73.00
2017-10-07T04:29:54.934Z,73.10
2017-10-07T04:32:23.175Z,73.20
2017-10-07T04:34:50.770Z,73.20
2017-10-07T04:37:18.229Z,73.30
2017-10-07T04:39:45.682Z,73.60
2017-10-07T04:42:13.927Z,73.00
2017-10-07T04:44:41.414Z,73.00
2017-10-07T04:47:09.048Z,73.10
2017-10-07T04:49:36.610Z,73.50
2017-10-07T04:52:04.103Z,73.00
2017-10-07T04:54:31.570Z,73.00
2017-10-07T04:56:59.795Z,72.80
2017-10-07T04:59:27.284Z,72.80
2017-10-07T05:01:55.505Z,72.40
2017-10-07T05:04:23.935Z,72.60
2017-10-07T05:06:52.187Z,72.10
2017-10-07T05:09:20.409Z,72.70
2017-10-07T05:11:48.769Z,73.10
2017-10-07T05:14:16.245Z,73.00
2017-10-07T05:16:43.735Z,73.10
2017-10-07T05:19:11.395Z,73.00
2017-10-07T05:21:39.618Z,72.90
2017-10-07T05:24:07.136Z,72.70
2017-10-07T05:26:35.384Z,72.20
2017-10-07T05:29:02.842Z,72.20
2017-10-07T05:31:31.090Z,72.50
2017-10-07T05:33:58.602Z,72.50
2017-10-07T05:36:26.852Z,72.10
2017-10-07T05:38:54.319Z,71.90
2017-10-07T05:41:21.823Z,72.30
2017-10-07T05:43:50.038Z,72.60
2017-10-07T05:46:17.488Z,72.60
2017-10-07T05:48:44.993Z,72.60
2017-10-07T05:51:12.446Z,72.10
2017-10-07T05:53:40.072Z,71.80
2017-10-07T05:56:07.553Z,72.20
2017-10-07T05:58:35.268Z,71.90
2017-10-07T06:01:03.499Z,72.10
2017-10-07T06:03:31.013Z,72.10
2017-10-07T06:05:58.631Z,71.50
2017-10-07T06:08:26.912Z,71.40
2017-10-07T06:10:54.379Z,71.30
2017-10-07T06:13:22.605Z,70.80
2017-10-07T06:15:50.069Z,70.90
2017-10-07T06:18:17.571Z,71.30
2017-10-07T06:20:45.053Z,72.10
2017-10-07T06:23:12.534Z,71.20
2017-10-07T06:25:40.000Z,71.00
2017-10-07T06:28:07.471Z,71.20
2017-10-07T06:30:34.985Z,70.80
2017-10-07T06:33:03.293Z,70.90
2017-10-07T06:35:30.809Z,70.20
2017-10-07T06:37:59.053Z,69.80
2017-10-07T06:40:27.426Z,69.70
2017-10-07T06:42:54.892Z,69.70
2017-10-07T06:45:22.525Z,69.50
2017-10-07T06:47:50.052Z,68.30
2017-10-07T06:50:17.855Z,68.80
2017-10-07T06:52:46.273Z,69.20
2017-10-07T06:55:13.745Z,68.70
2017-10-07T06:57:41.246Z,67.90
2017-10-07T07:00:08.767Z,68.00
2017-10-07T07:02:36.253Z,67.30
2017-10-07T07:05:03.755Z,66.70
2017-10-07T07:07:32.006Z,67.00
2017-10-07T07:09:59.529Z,67.00
2017-10-07T07:12:27.798Z,66.30
2017-10-07T07:14:55.247Z,66.20
2017-10-07T07:17:22.731Z,66.00
2017-10-07T07:19:50.189Z,65.70
2017-10-07T07:22:18.589Z,65.00
2017-10-07T07:24:46.836Z,64.40
2017-10-07T07:27:14.438Z,64.50
2017-10-07T07:29:41.912Z,63.90
2017-10-07T07:32:09.540Z,62.40
2017-10-07T07:34:37.828Z,60.80
2017-10-07T07:37:05.422Z,60.90
2017-10-07T07:39:33.662Z,60.70
2017-10-07T07:42:01.893Z,60.00
2017-10-07T07:44:29.391Z,60.10
2017-10-07T07:46:56.938Z,60.00
2017-10-07T07:49:24.505Z,60.60
2017-10-07T07:51:51.967Z,62.30
2017-10-07T07:54:19.530Z,62.50
2017-10-07T07:56:47.851Z,62.90
2017-10-07T07:59:15.331Z,63.00
2017-10-07T08:01:42.911Z,63.10
2017-10-07T08:04:11.149Z,63.20
2017-10-07T08:06:38.647Z,63.20
2017-10-07T08:09:06.866Z,62.70
2017-10-07T08:11:34.490Z,62.60
2017-10-07T08:14:01.970Z,63.20
2017-10-07T08:16:30.205Z,62.50
2017-10-07T08:18:57.699Z,62.50
2017-10-07T08:21:25.159Z,62.40
2017-10-07T08:23:52.752Z,61.60
2017-10-07T08:26:20.229Z,61.30
2017-10-07T08:28:47.697Z,61.10
2017-10-07T08:31:15.215Z,60.60
2017-10-07T08:33:42.672Z,60.40
2017-10-07T08:36:10.187Z,60.60
2017-10-07T08:38:37.655Z,60.40
2017-10-07T08:41:05.235Z,59.20
2017-10-07T08:43:32.715Z,59.20
2017-10-07T08:46:00.180Z,58.90
2017-10-07T08:48:27.664Z,58.80
2017-10-07T08:50:55.154Z,58.50
2017-10-07T08:53:23.419Z,58.30
2017-10-07T08:55:50.922Z,58.20
2017-10-07T08:58:18.539Z,57.50
2017-10-07T09:00:46.023Z,57.90
2017-10-07T09:03:13.510Z,57.20
2017-10-07T09:05:41.902Z,56.90
2017-10-07T09:08:09.360Z,57.30
2017-10-07T09:10:36.880Z,57.40
2017-10-07T09:13:04.359Z,56.60
2017-10-07T09:15:31.943Z,56.50
2017-10-07T09:17:59.429Z,56.20
2017-10-07T09:20:26.894Z,55.70
2017-10-07T09:22:54.378Z,55.20
2017-10-07T09:25:21.900Z,55.10
2017-10-07T09:27:49.387Z,54.50
2017-10-07T09:30:16.849Z,54.00
2017-10-07T09:32:44.310Z,53.40
2017-10-07T09:35:11.779Z,53.40
2017-10-07T09:37:40.023Z,52.10
2017-10-07T09:40:07.520Z,52.10
2017-10-07T09:42:35.091Z,51.90
2017-10-07T09:45:02.650Z,51.60
2017-10-07T09:47:30.128Z,51.70
2017-10-07T09:49:57.650Z,51.60
2017-10-07T09:52:25.112Z,51.70
2017-10-07T09:54:52.606Z,52.20
2017-10-07T09:57:20.072Z,52.40
2017-10-07T09:59:47.572Z,53.10
2017-10-07T10:02:15.064Z,52.70
2017-10-07T10:04:42.530Z,52.30
2017-10-07T10:07:10.001Z,52.90
2017-10-07T10:09:37.457Z,51.90
2017-10-07T10:12:05.147Z,52.10
2017-10-07T10:14:32.620Z,51.90
2017-10-07T10:17:00.104Z,52.00
2017-10-07T10:19:27.614Z,51.10
2017-10-07T10:21:55.153Z,51.20
2017-10-07T10:24:22.661Z,50.80
2017-10-07T10:26:50.173Z,50.60
2017-10-07T10:29:18.411Z,48.10
2017-10-07T10:31:45.956Z,48.30
2017-10-07T10:34:13.540Z,47.80
2017-10-07T10:36:47.726Z,48.10
2017-10-07T10:39:15.381Z,48.70
2017-10-07T10:41:42.843Z,49.40
2017-10-07T10:44:10.313Z,50.20
2017-10-07T10:46:37.808Z,49.60
2017-10-07T10:49:05.286Z,49.20
2017-10-07T10:51:32.931Z,47.80
2017-10-07T10:54:00.439Z,47.20
2017-10-07T10:56:27.903Z,48.00
2017-10-07T10:58:55.439Z,47.70
2017-10-07T11:01:22.894Z,47.40
2017-10-07T11:03:51.158Z,47.20
2017-10-07T11:06:19.392Z,47.80
2017-10-07T11:08:46.889Z,47.70
2017-10-07T11:11:14.365Z,48.20
2017-10-07T11:13:41.848Z,48.70
2017-10-07T11:16:09.334Z,49.20
2017-10-07T11:18:36.796Z,49.80
2017-10-07T11:21:04.478Z,49.60
2017-10-07T11:23:31.959Z,49.80
2017-10-07T11:25:59.424Z,50.20
2017-10-07T11:28:27.694Z,49.00
2017-10-07T11:30:55.163Z,49.00
2017-10-07T11:33:22.666Z,48.50
2017-10-07T11:35:50.118Z,48.40
2017-10-07T11:38:17.621Z,48.20
2017-10-07T11:40:45.195Z,47.70
2017-10-07T11:43:12.781Z,47.30
2017-10-07T11:45:40.249Z,47.50
2017-10-07T11:48:07.725Z,47.70
2017-10-07T11:50:35.205Z,47.60
2017-10-07T11:53:02.696Z,47.30
2017-10-07T11:55:30.171Z,47.90
2017-10-07T11:57:57.645Z,48.10
2017-10-07T12:00:25.236Z,48.20
2017-10-07T12:02:52.756Z,48.40
2017-10-07T12:05:20.307Z,48.60
2017-10-07T12:07:47.805Z,48.20
2017-10-07T12:10:15.285Z,48.50
2017-10-07T12:12:43.839Z,48.20
2017-10-07T12:15:12.076Z,48.50
2017-10-07T12:17:39.564Z,48.40
2017-10-07T12:20:07.816Z,47.10
2017-10-07T12:22:36.055Z,45.70
2017-10-07T12:25:03.667Z,45.60
2017-10-07T12:27:31.149Z,45.60
2017-10-07T12:29:58.667Z,45.30
2017-10-07T12:32:26.916Z,45.00
2017-10-07T12:34:54.389Z,45.00
2017-10-07T12:37:21.899Z,45.00
2017-10-07T12:39:49.412Z,44.90
2017-10-07T12:42:17.673Z,44.50
2017-10-07T12:44:45.380Z,44.50
2017-10-07T12:47:12.843Z,44.70
2017-10-07T12:49:40.331Z,44.70
2017-10-07T12:52:07.831Z,44.70
2017-10-07T12:54:36.094Z,43.90
2017-10-07T12:57:03.732Z,43.90
2017-10-07T12:59:31.977Z,44.10
2017-10-07T13:01:59.459Z,44.10
2017-10-07T13:04:26.941Z,43.60
2017-10-07T13:06:54.426Z,44.00
2017-10-07T13:09:21.886Z,43.80
2017-10-07T13:11:49.482Z,43.80
2017-10-07T13:14:16.957Z,43.90
2017-10-07T13:16:44.569Z,42.70
2017-10-07T13:19:12.040Z,42.80
2017-10-07T13:21:39.528Z,43.10
2017-10-07T13:24:07.029Z,42.80
2017-10-07T13:26:34.548Z,43.00
2017-10-07T13:29:02.831Z,43.80
2017-10-07T13:31:31.083Z,42.70
2017-10-07T13:33:58.621Z,42.70
2017-10-07T13:36:26.914Z,42.70
2017-10-07T13:38:54.366Z,42.60
2017-10-07T13:41:23.007Z,42.40
2017-10-07T13:43:51.240Z,43.00
2017-10-07T13:46:18.714Z,43.70
2017-10-07T13:48:46.956Z,43.10
2017-10-07T13:51:14.439Z,43.20
2017-10-07T13:53:42.031Z,43.30
2017-10-07T13:56:09.492Z,42.20
2017-10-07T13:58:36.980Z,42.20
2017-10-07T14:01:05.075Z,42.50
2017-10-07T14:03:32.548Z,42.60
2017-10-07T14:06:00.231Z,42.80
2017-10-07T14:08:27.702Z,43.40
2017-10-07T14:10:55.194Z,43.30
2017-10-07T14:13:22.697Z,43.20
2017-10-07T14:15:50.198Z,42.70
2017-10-07T14:18:17.685Z,42.60
2017-10-07T14:20:45.351Z,43.10
2017-10-07T14:23:12.819Z,43.70
2017-10-07T14:25:40.298Z,43.40
2017-10-07T14:28:07.779Z,43.80
2017-10-07T14:30:35.281Z,43.90
2017-10-07T14:33:02.788Z,44.30
2017-10-07T14:35:30.285Z,44.50
2017-10-07T14:37:58.686Z,44.90
2017-10-07T14:40:26.176Z,44.70
2017-10-07T14:42:53.672Z,44.50
2017-10-07T14:45:21.928Z,44.40
2017-10-07T14:47:49.408Z,44.50
2017-10-07T14:50:16.898Z,44.80
2017-10-07T14:52:44.397Z,44.60
2017-10-07T14:55:12.021Z,45.40
2017-10-07T14:57:39.534Z,45.10
2017-10-07T15:00:07.026Z,45.10
2017-10-07T15:02:35.318Z,44.80
2017-10-07T15:05:02.841Z,44.80
2017-10-07T15:07:30.316Z,44.60
2017-10-07T15:09:57.791Z,44.80
2017-10-07T15:12:25.315Z,45.20
2017-10-07T15:14:53.551Z,45.60
2017-10-07T15:17:21.041Z,45.20
2017-10-07T15:19:48.510Z,45.40
2017-10-07T15:22:15.996Z,45.30
2017-10-07T15:24:43.465Z,45.70
2017-10-07T15:27:11.075Z,45.70
2017-10-07T15:29:38.550Z,45.60
2017-10-07T15:32:06.193Z,46.30
2017-10-07T15:34:33.673Z,46.20
2017-10-07T15:37:01.993Z,46.50
2017-10-07T15:39:29.503Z,46.50
2017-10-07T15:41:56.979Z,46.60
2017-10-07T15:44:24.494Z,46.90
2017-10-07T15:46:52.108Z,46.60
2017-10-07T15:49:20.363Z,47.10
2017-10-07T15:51:47.870Z,47.10
2017-10-07T15:54:15.493Z,46.60
2017-10-07T15:56:42.983Z,47.40
2017-10-07T15:59:10.496Z,47.30
2017-10-07T16:01:37.985Z,47.30
2017-10-07T16:04:05.700Z,46.80
2017-10-07T16:06:33.953Z,47.40
2017-10-07T16:09:01.449Z,47.50
2017-10-07T16:11:29.036Z,47.60
2017-10-07T16:13:56.503Z,47.60
2017-10-07T16:16:23.978Z,47.80
2017-10-07T16:18:52.294Z,48.10
2017-10-07T16:21:19.894Z,48.10
2017-10-07T16:23:48.150Z,49.00
2017-10-07T16:26:15.637Z,48.50
2017-10-07T16:28:43.881Z,48.30
2017-10-07T16:31:12.112Z,48.40
2017-10-07T16:33:39.590Z,48.40
2017-10-07T16:36:07.066Z,48.50
2017-10-07T16:38:34.536Z,48.70
2017-10-07T16:41:02.774Z,48.80
2017-10-07T16:43:30.240Z,48.70
2017-10-07T16:45:57.730Z,48.90
2017-10-07T16:48:25.433Z,48.70
2017-10-07T16:50:53.043Z,48.50
2017-10-07T16:53:20.529Z,48.80
2017-10-07T16:55:48.034Z,48.90
2017-10-07T16:58:16.280Z,49.20
2017-10-07T17:00:43.827Z,48.80
2017-10-07T17:03:12.076Z,49.20
2017-10-07T17:05:39.546Z,49.10
2017-10-07T17:08:07.033Z,49.00
2017-10-07T17:10:34.504Z,48.80
2017-10-07T17:13:02.120Z,49.60
2017-10-07T17:15:29.579Z,49.00
2017-10-07T17:17:57.053Z,49.20
2017-10-07T17:20:24.557Z,49.30
2017-10-07T17:22:52.050Z,49.70
2017-10-07T17:25:19.823Z,49.40
2017-10-07T17:27:48.079Z,50.20
2017-10-07T17:30:15.612Z,50.20
2017-10-07T17:32:43.128Z,49.90
2017-10-07T17:35:11.379Z,49.90
2017-10-07T17:37:38.883Z,50.00
2017-10-07T17:40:06.395Z,49.90
2017-10-07T17:42:34.790Z,50.40
2017-10-07T17:45:02.308Z,50.40
2017-10-07T17:47:30.544Z,50.40
2017-10-07T17:49:58.036Z,50.40
2017-10-07T17:52:25.741Z,50.30
2017-10-07T17:54:53.262Z,50.60
2017-10-07T17:57:21.507Z,50.70
2017-10-07T17:59:48.982Z,50.70
2017-10-07T18:02:16.690Z,50.60
2017-10-07T18:04:44.187Z,50.40
2017-10-07T18:07:11.667Z,50.70
2017-10-07T18:09:39.156Z,50.90
2017-10-07T18:12:07.414Z,51.20
2017-10-07T18:14:34.920Z,51.10
2017-10-07T18:17:02.394Z,51.30
2017-10-07T18:19:29.906Z,51.20
2017-10-07T18:21:58.271Z,51.40
2017-10-07T18:24:25.863Z,51.50
2017-10-07T18:26:53.365Z,51.70
2017-10-07T18:29:20.991Z,51.90
2017-10-07T18:31:48.468Z,52.10
2017-10-07T18:34:15.955Z,52.00
2017-10-07T18:36:43.981Z,52.30
2017-10-07T18:39:11.688Z,52.40
2017-10-07T18:41:39.329Z,52.40
2017-10-07T18:44:06.915Z,52.50
2017-10-07T18:46:34.391Z,53.40
2017-10-07T18:49:02.150Z,52.70
2017-10-07T18:51:29.667Z,52.70
2017-10-07T18:53:57.155Z,52.80
2017-10-07T18:56:25.143Z,53.00
2017-10-07T18:58:52.646Z,52.70
2017-10-07T19:01:20.400Z,52.60
2017-10-07T19:03:48.648Z,52.50
2017-10-07T19:06:16.340Z,52.40
2017-10-07T19:08:43.818Z,52.50
2017-10-07T19:11:11.302Z,52.50
2017-10-07T19:13:38.798Z,52.40
2017-10-07T19:16:06.267Z,52.60
2017-10-07T19:18:33.947Z,52.10
2017-10-07T19:21:01.438Z,52.00
2017-10-07T19:23:28.941Z,51.90
2017-10-07T19:25:56.469Z,51.90
2017-10-07T19:28:24.328Z,51.70
2017-10-07T19:30:52.598Z,51.20
2017-10-07T19:33:20.104Z,51.20
2017-10-07T19:35:48.627Z,50.80
2017-10-07T19:38:16.306Z,50.80
2017-10-07T19:40:44.708Z,49.90
2017-10-07T19:43:12.939Z,50.20
2017-10-07T19:45:40.430Z,50.00
2017-10-07T19:48:08.106Z,49.90
2017-10-07T19:50:35.617Z,49.90
2017-10-07T19:53:03.108Z,50.00
2017-10-07T19:55:30.581Z,49.90
2017-10-07T19:57:58.077Z,49.70
2017-10-07T20:00:25.605Z,50.80
2017-10-07T20:02:53.297Z,50.10
2017-10-07T20:05:21.534Z,49.90
2017-10-07T20:07:49.200Z,50.00
2017-10-07T20:10:16.894Z,50.00
2017-10-07T20:12:44.381Z,49.80
2017-10-07T20:15:11.910Z,49.70
2017-10-07T20:17:39.570Z,49.70
2017-10-07T20:20:07.378Z,49.60
2017-10-07T20:22:35.830Z,49.50
2017-10-07T20:25:03.633Z,49.50
2017-10-07T20:27:31.123Z,49.60
2017-10-07T20:29:58.643Z,49.30
2017-10-07T20:32:26.412Z,49.30
2017-10-07T20:34:53.900Z,49.40
2017-10-07T20:37:21.396Z,49.00
2017-10-07T20:39:48.880Z,48.80
2017-10-07T20:42:16.563Z,48.70
2017-10-07T20:44:44.033Z,48.70
2017-10-07T20:47:11.514Z,48.60
2017-10-07T20:49:38.999Z,48.60
2017-10-07T20:52:06.470Z,48.80
2017-10-07T20:54:33.967Z,48.90
2017-10-07T20:57:01.458Z,48.70
2017-10-07T20:59:28.951Z,48.80
2017-10-07T21:01:56.413Z,48.90
2017-10-07T21:04:23.877Z,48.90
2017-10-07T21:06:51.356Z,49.10
2017-10-07T21:09:18.840Z,49.60
2017-10-07T21:11:46.318Z,49.20
2017-10-07T21:14:13.770Z,49.40
2017-10-07T21:16:41.378Z,48.90
2017-10-07T21:19:08.885Z,49.00
2017-10-07T21:21:36.359Z,49.10
2017-10-07T21:24:03.874Z,49.00
2017-10-07T21:26:31.331Z,49.10
2017-10-07T21:28:58.814Z,48.90
2017-10-07T21:31:26.476Z,48.60
2017-10-07T21:33:53.980Z,48.90
2017-10-07T21:36:21.688Z,48.90
2017-10-07T21:38:49.393Z,48.60
2017-10-07T21:41:16.865Z,48.60
2017-10-07T21:43:44.390Z,48.90
2017-10-07T21:46:11.916Z,48.80
2017-10-07T21:48:39.401Z,48.60
2017-10-07T21:51:07.271Z,48.20
2017-10-07T21:53:34.758Z,48.30
2017-10-07T21:56:02.222Z,48.40
2017-10-07T21:58:29.711Z,48.70
2017-10-07T22:00:57.226Z,48.80
2017-10-07T22:03:24.875Z,48.80
2017-10-07T22:05:52.429Z,48.70
2017-10-07T22:08:20.938Z,49.10
2017-10-07T22:10:48.480Z,48.90
2017-10-07T22:13:16.049Z,48.90
2017-10-07T22:15:43.607Z,49.00
2017-10-07T22:18:11.182Z,50.00
2017-10-07T22:20:38.795Z,49.10
2017-10-07T22:23:06.407Z,49.30
2017-10-07T22:25:33.926Z,49.10
2017-10-07T22:28:02.217Z,49.70
2017-10-07T22:30:30.470Z,49.60
2017-10-07T22:32:57.953Z,49.60
2017-10-07T22:35:25.456Z,50.00
2017-10-07T22:37:52.993Z,49.90
2017-10-07T22:40:20.493Z,50.30
2017-10-07T22:42:48.096Z,50.40
2017-10-07T22:45:15.600Z,50.60
2017-10-07T22:47:43.084Z,50.80
2017-10-07T22:50:11.496Z,51.00
2017-10-07T22:52:39.775Z,51.20
2017-10-07T22:55:07.274Z,51.30
2017-10-07T22:57:34.761Z,51.40
2017-10-07T23:00:03.187Z,49.10
2017-10-07T23:02:30.695Z,49.10
2017-10-07T23:04:58.189Z,52.20
2017-10-07T23:07:25.773Z,54.60
2017-10-07T23:09:53.235Z,55.80
2017-10-07T23:12:20.899Z,57.40
2017-10-07T23:14:49.148Z,58.70
2017-10-07T23:17:16.743Z,58.70
2017-10-07T23:19:44.234Z,59.90
2017-10-07T23:22:11.722Z,60.90
2017-10-07T23:24:39.214Z,62.10
2017-10-07T23:27:06.689Z,62.30
2017-10-07T23:29:34.171Z,64.00
2017-10-07T23:32:01.696Z,64.40
2017-10-07T23:34:29.146Z,65.00
2017-10-07T23:36:56.699Z,64.90
2017-10-07T23:39:24.194Z,65.30
2017-10-07T23:41:51.689Z,64.40
2017-10-07T23:44:19.154Z,64.90
2017-10-07T23:46:46.638Z,65.20
2017-10-07T23:49:14.121Z,65.00
2017-10-07T23:51:41.583Z,65.10
2017-10-07T23:54:09.068Z,64.70
2017-10-07T23:56:36.561Z,64.50
2017-10-07T23:59:04.055Z,63.80
